Time;durP1;ratioP1;P1;durP2;ratioP2;P2;SDS_P1;SDS_P2;PMS_P1;PMS_P2;Temp;Humidity;BMP_temperature;BMP_pressure;BME280_temperature;BME280_humidity;BME280_pressure;Samples;Min_cycle;Max_cycle;Signal;HPM_P1;HPM_P2
2022/12/13 01:02:27;;;;;;;3.30;2.47;;;3.60;99.90;;;;;;5142671;27;20581;-91
2022/12/13 01:04:58;;;;;;;4.47;2.90;;;3.40;99.90;;;;;;5142530;28;20197;-90
2022/12/13 01:07:29;;;;;;;3.77;2.90;;;3.30;99.90;;;;;;5144620;27;20201;-89
2022/12/13 01:10:02;;;;;;;3.33;2.53;;;3.30;99.90;;;;;;5146645;27;20236;-90
2022/12/13 01:12:33;;;;;;;6.70;3.50;;;3.30;99.90;;;;;;5124348;28;20302;-91
2022/12/13 01:15:12;;;;;;;5.90;3.40;;;3.20;99.90;;;;;;5125783;28;20209;-89
2022/12/13 01:17:46;;;;;;;5.13;3.47;;;3.30;99.90;;;;;;5144236;27;20205;-89
2022/12/13 01:20:17;;;;;;;4.83;3.20;;;3.30;99.90;;;;;;5146957;28;20201;-90
2022/12/13 01:22:49;;;;;;;4.27;2.97;;;3.40;99.90;;;;;;5142966;28;20220;-88
2022/12/13 01:25:25;;;;;;;6.27;4.23;;;3.40;99.90;;;;;;5136187;27;20253;-90
2022/12/13 01:27:56;;;;;;;7.43;5.77;;;3.30;99.90;;;;;;5134955;28;20282;-90
2022/12/13 01:30:27;;;;;;;6.93;5.17;;;3.30;99.90;;;;;;5143154;27;20261;-90
2022/12/13 01:33:02;;;;;;;5.73;4.70;;;3.40;99.90;;;;;;5128736;28;20211;-89
2022/12/13 01:35:43;;;;;;;3.40;2.90;;;3.40;99.90;;;;;;5127162;28;20233;-89
2022/12/13 01:38:17;;;;;;;3.60;2.10;;;3.50;99.90;;;;;;5125461;28;20664;-89
2022/12/13 01:40:57;;;;;;;2.07;1.87;;;3.50;99.90;;;;;;5120435;28;20202;-89
2022/12/13 01:43:50;;;;;;;2.73;2.10;;;3.60;99.90;;;;;;5117241;28;20207;-90
2022/12/13 01:46:22;;;;;;;3.77;2.40;;;3.60;99.90;;;;;;5116963;28;20205;-90
2022/12/13 01:49:08;;;;;;;5.87;2.80;;;3.60;99.90;;;;;;5115824;28;20195;-90
2022/12/13 01:51:54;;;;;;;2.80;2.50;;;3.60;99.90;;;;;;5132711;28;20244;-89
2022/12/13 01:54:31;;;;;;;2.40;2.00;;;3.50;99.90;;;;;;5134403;28;20208;-90
2022/12/13 01:57:05;;;;;;;6.13;1.97;;;3.50;99.90;;;;;;5116330;28;20208;-89
2022/12/13 01:59:38;;;;;;;2.60;1.87;;;3.40;99.90;;;;;;5117102;28;20302;-90
2022/12/13 02:02:13;;;;;;;2.70;2.10;;;3.40;99.90;;;;;;5113411;28;20219;-91
2022/12/13 02:04:53;;;;;;;3.50;2.20;;;3.30;99.90;;;;;;5120047;28;20255;-91
2022/12/13 02:07:28;;;;;;;2.10;1.87;;;3.20;99.90;;;;;;5118272;28;20187;-91
2022/12/13 02:10:02;;;;;;;2.80;2.20;;;3.20;99.90;;;;;;5110566;28;20237;-88
2022/12/13 02:12:35;;;;;;;3.23;1.90;;;3.10;99.90;;;;;;5101362;28;20187;-91
2022/12/13 02:15:10;;;;;;;3.50;2.30;;;3.00;99.90;;;;;;5105633;28;20237;-92
2022/12/13 02:18:00;;;;;;;4.03;2.27;;;3.00;99.90;;;;;;5099056;28;20211;-91
2022/12/13 02:21:03;;;;;;;2.60;2.23;;;2.90;99.90;;;;;;5100480;28;20211;-91
2022/12/13 02:24:14;;;;;;;2.73;2.33;;;2.90;99.90;;;;;;5111850;28;20211;-90
2022/12/13 02:27:08;;;;;;;4.37;2.63;;;2.80;99.90;;;;;;5105433;28;20206;-91
2022/12/13 02:30:09;;;;;;;3.13;2.83;;;2.80;99.90;;;;;;5115600;28;20245;-91
2022/12/13 02:32:51;;;;;;;2.93;2.40;;;2.70;99.90;;;;;;5105247;28;20306;-90
2022/12/13 02:35:34;;;;;;;2.33;2.10;;;2.70;99.90;;;;;;5108062;28;20195;-91
2022/12/13 02:38:15;;;;;;;2.70;2.50;;;2.60;99.90;;;;;;5103856;28;20225;-89
2022/12/13 02:40:58;;;;;;;2.47;2.00;;;2.40;99.90;;;;;;5108757;28;20227;-90
2022/12/13 02:43:38;;;;;;;4.50;3.40;;;2.30;99.90;;;;;;5091643;28;20205;-90
2022/12/13 02:46:19;;;;;;;4.10;2.63;;;2.30;99.90;;;;;;5109684;28;20316;-90
2022/12/13 02:48:56;;;;;;;4.00;3.60;;;2.30;99.90;;;;;;5111940;28;20199;-91
2022/12/13 02:51:30;;;;;;;6.23;5.13;;;2.30;99.90;;;;;;5111341;28;20228;-91
2022/12/13 02:54:01;;;;;;;9.37;7.87;;;2.40;99.90;;;;;;5110290;28;20191;-91
2022/12/13 02:56:34;;;;;;;14.90;10.43;;;2.50;99.90;;;;;;5105507;28;20209;-90
2022/12/13 02:59:11;;;;;;;11.10;7.70;;;2.50;99.90;;;;;;5107510;28;20207;-90
2022/12/13 03:01:55;;;;;;;10.43;8.10;;;2.60;99.90;;;;;;5105528;28;20278;-91
2022/12/13 03:07:47;;;;;;;6.60;4.27;;;2.70;99.90;;;;;;5112588;28;20667;-90
2022/12/13 03:10:27;;;;;;;4.27;3.57;;;2.80;99.90;;;;;;5107223;28;20231;-90
2022/12/13 03:15:56;;;;;;;5.37;2.90;;;2.90;99.90;;;;;;5108098;28;20222;-90
2022/12/13 03:18:30;;;;;;;5.57;4.60;;;2.90;99.90;;;;;;5125811;28;20202;-90
2022/12/13 03:21:07;;;;;;;3.27;2.93;;;2.90;99.90;;;;;;5102684;28;20274;-89
2022/12/13 03:23:39;;;;;;;6.07;4.70;;;3.00;99.90;;;;;;5105750;28;20214;-91
2022/12/13 03:26:14;;;;;;;6.10;4.50;;;3.10;99.90;;;;;;5107519;28;20290;-91
2022/12/13 03:28:47;;;;;;;4.33;3.93;;;3.10;99.90;;;;;;5088263;28;20226;-91
2022/12/13 03:31:19;;;;;;;4.30;3.50;;;3.10;99.90;;;;;;5107998;28;20223;-88
2022/12/13 03:33:50;;;;;;;3.83;3.10;;;3.10;99.90;;;;;;5087653;28;20207;-90
2022/12/13 03:36:25;;;;;;;4.70;3.80;;;3.10;99.90;;;;;;5103524;28;20203;-90
2022/12/13 03:38:57;;;;;;;4.43;4.03;;;3.10;99.90;;;;;;5106378;28;20613;-89
2022/12/13 03:41:32;;;;;;;6.27;4.93;;;3.20;99.90;;;;;;5106892;28;20198;-89
2022/12/13 03:46:42;;;;;;;7.23;6.30;;;3.30;99.90;;;;;;5266834;22;20253;-89
2022/12/13 03:49:14;;;;;;;10.40;9.40;;;3.30;99.90;;;;;;5091748;28;20301;-89
2022/12/13 03:51:48;;;;;;;9.43;8.43;;;3.40;99.90;;;;;;5090823;28;20257;-89
2022/12/13 03:54:20;;;;;;;10.50;9.40;;;3.50;99.90;;;;;;5097267;28;20251;-91
2022/12/13 03:56:56;;;;;;;8.13;7.33;;;3.50;99.90;;;;;;5092891;28;20209;-90
2022/12/13 03:59:43;;;;;;;6.77;6.07;;;3.60;99.90;;;;;;5077878;28;20190;-90
2022/12/13 04:02:18;;;;;;;5.33;4.83;;;3.60;99.90;;;;;;5092982;28;20266;-91
2022/12/13 04:05:02;;;;;;;6.80;4.63;;;3.60;99.90;;;;;;5077983;28;20242;-91
2022/12/13 04:10:31;;;;;;;6.40;5.23;;;3.60;99.90;;;;;;5255367;23;20263;-90
2022/12/13 04:15:53;;;;;;;6.97;6.10;;;3.60;99.90;;;;;;5062644;28;20209;-90
2022/12/13 04:18:25;;;;;;;15.10;7.00;;;3.70;99.90;;;;;;5066167;28;20185;-91
2022/12/13 04:20:56;;;;;;;17.57;14.10;;;3.70;99.90;;;;;;5057485;28;20199;-91
2022/12/13 04:23:29;;;;;;;16.80;11.83;;;3.80;99.90;;;;;;5059589;28;20248;-90
2022/12/13 04:26:04;;;;;;;13.27;11.37;;;3.70;99.90;;;;;;5044934;28;20193;-90
2022/12/13 04:28:42;;;;;;;20.03;14.77;;;3.80;99.90;;;;;;5042342;28;20204;-90
2022/12/13 04:31:21;;;;;;;20.33;14.07;;;3.80;99.90;;;;;;5051665;28;20209;-89
2022/12/13 04:33:55;;;;;;;16.17;11.53;;;3.80;99.90;;;;;;5052758;28;20208;-89
2022/12/13 04:36:27;;;;;;;9.13;6.87;;;3.80;99.90;;;;;;5052605;28;20229;-89
2022/12/13 04:39:02;;;;;;;6.73;4.90;;;3.80;99.90;;;;;;5048318;28;20311;-89
2022/12/13 04:41:55;;;;;;;7.13;5.83;;;3.80;99.90;;;;;;5046717;28;20201;-89
2022/12/13 04:44:28;;;;;;;7.27;5.43;;;3.90;99.90;;;;;;5303136;22;20227;-88
2022/12/13 04:47:06;;;;;;;8.23;6.13;;;3.90;99.90;;;;;;5085475;28;20386;-90
2022/12/13 04:49:37;;;;;;;7.97;6.10;;;3.90;99.90;;;;;;5096664;28;20389;-90
2022/12/13 04:52:12;;;;;;;10.30;7.40;;;3.90;99.90;;;;;;5081997;28;20241;-89
2022/12/13 04:54:52;;;;;;;10.20;6.90;;;3.90;99.90;;;;;;5099367;28;20290;-90
2022/12/13 04:57:27;;;;;;;8.70;7.17;;;3.90;99.90;;;;;;5073410;28;20306;-89
2022/12/13 05:00:00;;;;;;;9.33;7.30;;;3.90;99.90;;;;;;5087837;28;20560;-90
2022/12/13 05:02:31;;;;;;;5.83;4.90;;;3.90;99.90;;;;;;5097747;28;20207;-91
2022/12/13 05:05:06;;;;;;;5.40;3.63;;;3.90;99.90;;;;;;5083521;28;20211;-91
2022/12/13 05:07:42;;;;;;;6.00;3.80;;;3.90;99.90;;;;;;5088100;28;20222;-91
2022/12/13 05:10:14;;;;;;;5.43;3.50;;;3.90;99.90;;;;;;5081728;28;20219;-90
2022/12/13 05:13:09;;;;;;;5.30;4.07;;;3.90;99.90;;;;;;5066065;28;20230;-91
2022/12/13 05:15:41;;;;;;;5.67;3.43;;;4.00;99.90;;;;;;5088053;28;20254;-92
2022/12/13 05:18:13;;;;;;;6.80;3.30;;;3.90;99.90;;;;;;5099280;28;20202;-91
2022/12/13 05:20:45;;;;;;;5.03;3.60;;;4.00;99.90;;;;;;5098434;28;20214;-91
2022/12/13 05:23:16;;;;;;;5.77;3.87;;;3.90;99.90;;;;;;5084127;28;20213;-91
2022/12/13 05:25:52;;;;;;;4.93;3.60;;;3.90;99.90;;;;;;5086604;28;20239;-91
2022/12/13 05:28:27;;;;;;;4.20;2.97;;;3.90;99.90;;;;;;5082535;28;20651;-92
2022/12/13 05:31:00;;;;;;;4.87;3.80;;;3.90;99.90;;;;;;5047504;28;20232;-90
2022/12/13 05:33:31;;;;;;;7.83;4.00;;;3.80;99.90;;;;;;5077386;28;20235;-91
2022/12/13 05:36:07;;;;;;;5.73;3.57;;;3.80;99.90;;;;;;5072526;28;20195;-91
2022/12/13 05:38:38;;;;;;;5.47;4.03;;;3.90;99.90;;;;;;5085701;28;20203;-90
2022/12/13 05:41:16;;;;;;;5.33;3.97;;;3.90;99.90;;;;;;5075402;28;20204;-91
2022/12/13 05:43:49;;;;;;;5.87;3.67;;;3.90;99.90;;;;;;5089008;28;20207;-91
2022/12/13 05:46:21;;;;;;;4.20;3.33;;;3.90;99.90;;;;;;5092149;28;20200;-90
2022/12/13 05:48:55;;;;;;;5.27;3.80;;;3.90;99.90;;;;;;5085422;28;20414;-90
2022/12/13 05:51:26;;;;;;;5.50;3.73;;;3.90;99.90;;;;;;5089246;28;20221;-91
2022/12/13 05:53:57;;;;;;;4.63;3.67;;;4.00;99.90;;;;;;5082982;28;20245;-91
2022/12/13 05:56:28;;;;;;;4.50;3.80;;;4.00;99.90;;;;;;5090652;28;20191;-90
2022/12/13 05:59:02;;;;;;;6.57;3.77;;;3.90;99.90;;;;;;5096063;28;20254;-90
2022/12/13 06:01:36;;;;;;;4.93;3.90;;;3.90;99.90;;;;;;5084821;28;20206;-90
2022/12/13 06:04:14;;;;;;;8.57;4.83;;;3.90;99.90;;;;;;5094475;28;20219;-91
2022/12/13 06:06:53;;;;;;;7.80;4.47;;;3.90;99.90;;;;;;5089834;28;20207;-91
2022/12/13 06:09:25;;;;;;;5.93;4.67;;;3.90;99.90;;;;;;5083869;28;20199;-91
2022/12/13 06:11:56;;;;;;;5.97;4.77;;;4.00;99.90;;;;;;5091370;28;20199;-88
2022/12/13 06:14:33;;;;;;;6.73;5.40;;;3.90;99.90;;;;;;5081908;28;20245;-91
2022/12/13 06:17:05;;;;;;;6.40;4.50;;;3.90;99.90;;;;;;5091743;28;20281;-91
2022/12/13 06:19:37;;;;;;;5.73;4.17;;;4.00;99.90;;;;;;5082657;28;20214;-91
2022/12/13 06:22:08;;;;;;;6.10;4.77;;;3.90;99.90;;;;;;5079497;28;20282;-91
2022/12/13 06:24:40;;;;;;;5.23;4.50;;;4.00;99.90;;;;;;5080178;28;20665;-91
2022/12/13 06:27:12;;;;;;;5.57;4.30;;;3.90;99.90;;;;;;5084658;28;20202;-91
2022/12/13 06:29:46;;;;;;;7.23;4.77;;;3.80;99.90;;;;;;5081644;28;20214;-91
2022/12/13 06:32:18;;;;;;;5.67;4.33;;;3.80;99.90;;;;;;5084032;28;20211;-91
2022/12/13 06:34:50;;;;;;;6.80;4.70;;;3.80;99.90;;;;;;5096995;28;20230;-91
2022/12/13 06:37:26;;;;;;;6.30;4.77;;;3.80;99.90;;;;;;5083740;28;20181;-91
2022/12/13 06:39:58;;;;;;;5.53;4.23;;;3.80;99.90;;;;;;5085110;28;20251;-90
2022/12/13 06:42:30;;;;;;;5.40;4.10;;;3.80;99.90;;;;;;5081796;28;20649;-91
2022/12/13 06:45:04;;;;;;;6.50;4.37;;;3.80;99.90;;;;;;5087828;28;20202;-90
2022/12/13 06:47:36;;;;;;;5.60;4.40;;;3.80;99.90;;;;;;5093555;28;20210;-90
2022/12/13 06:50:09;;;;;;;6.90;5.13;;;3.70;99.90;;;;;;5084957;28;20221;-90
2022/12/13 06:52:40;;;;;;;8.30;5.87;;;3.70;99.90;;;;;;5082400;28;20208;-91
2022/12/13 06:55:12;;;;;;;8.17;5.30;;;3.70;99.90;;;;;;5085580;28;20203;-90
2022/12/13 06:57:43;;;;;;;8.87;6.13;;;3.70;99.90;;;;;;5091984;28;20297;-91
2022/12/13 07:00:19;;;;;;;7.97;5.33;;;3.70;99.90;;;;;;5097627;28;20259;-91
2022/12/13 07:02:54;;;;;;;7.67;5.50;;;3.70;99.90;;;;;;5102423;28;20186;-92
2022/12/13 07:05:26;;;;;;;6.17;5.53;;;3.70;99.90;;;;;;5108169;28;20198;-91
2022/12/13 07:07:57;;;;;;;6.53;5.27;;;3.60;99.90;;;;;;5099579;28;20259;-89
2022/12/13 07:10:28;;;;;;;6.47;4.93;;;3.60;99.90;;;;;;5097569;28;20211;-91
2022/12/13 07:12:59;;;;;;;7.97;5.20;;;3.60;99.90;;;;;;5096418;28;20219;-92
2022/12/13 07:15:38;;;;;;;6.47;5.03;;;3.50;99.90;;;;;;5094331;28;20416;-91
2022/12/13 07:18:09;;;;;;;6.80;4.50;;;3.50;99.90;;;;;;5064040;28;20627;-92
2022/12/13 07:20:41;;;;;;;7.50;4.67;;;3.50;99.90;;;;;;5080258;28;20208;-91
2022/12/13 07:23:12;;;;;;;7.07;4.80;;;3.50;99.90;;;;;;5080439;28;20199;-90
2022/12/13 07:25:44;;;;;;;7.73;4.27;;;3.40;99.90;;;;;;5100510;28;20211;-89
2022/12/13 07:28:15;;;;;;;7.60;4.47;;;3.40;99.90;;;;;;5098063;28;20681;-90
2022/12/13 07:30:50;;;;;;;7.63;4.70;;;3.40;99.90;;;;;;5086112;28;20208;-89
2022/12/13 07:33:21;;;;;;;7.20;4.27;;;3.30;99.90;;;;;;5087961;28;20230;-89
2022/12/13 07:36:00;;;;;;;7.27;4.33;;;3.30;99.90;;;;;;5100112;28;20199;-89
2022/12/13 07:38:31;;;;;;;5.50;4.00;;;3.30;99.90;;;;;;5067723;28;20207;-90
2022/12/13 07:41:07;;;;;;;8.13;4.17;;;3.20;99.90;;;;;;5064705;28;20215;-90
2022/12/13 07:43:41;;;;;;;7.07;4.60;;;3.30;99.90;;;;;;5085079;28;20215;-89
2022/12/13 07:46:15;;;;;;;7.33;4.70;;;3.20;99.90;;;;;;5087009;28;20199;-89
2022/12/13 07:49:03;;;;;;;7.03;4.03;;;3.20;99.90;;;;;;5083427;28;20207;-90
2022/12/13 07:51:35;;;;;;;6.80;4.57;;;3.20;99.90;;;;;;5081187;28;20200;-91
2022/12/13 07:54:08;;;;;;;5.97;4.40;;;3.20;99.90;;;;;;5078923;28;20231;-90
2022/12/13 07:56:39;;;;;;;5.73;4.20;;;3.10;99.90;;;;;;5078884;28;20211;-90
2022/12/13 07:59:12;;;;;;;7.10;4.70;;;3.00;99.90;;;;;;5082294;28;20203;-90
2022/12/13 08:01:45;;;;;;;6.87;4.67;;;3.00;99.90;;;;;;5092773;28;20207;-90
2022/12/13 08:04:16;;;;;;;10.00;4.93;;;3.00;99.90;;;;;;5081316;28;20226;-89
2022/12/13 08:06:48;;;;;;;6.23;4.63;;;3.00;99.90;;;;;;5079127;28;20219;-89
2022/12/13 08:09:20;;;;;;;9.70;5.10;;;3.00;99.90;;;;;;5093440;28;20264;-90
2022/12/13 08:11:51;;;;;;;5.30;4.27;;;3.00;99.90;;;;;;5082569;28;20208;-89
2022/12/13 08:14:22;;;;;;;5.47;4.40;;;3.00;99.90;;;;;;5087323;28;20251;-90
2022/12/13 08:16:55;;;;;;;7.00;4.27;;;3.00;99.90;;;;;;5091122;28;20208;-89
2022/12/13 08:19:26;;;;;;;4.90;4.20;;;3.00;99.90;;;;;;5089105;28;20206;-91
2022/12/13 08:21:58;;;;;;;6.40;4.73;;;2.90;99.90;;;;;;5097818;28;20204;-89
2022/12/13 08:24:32;;;;;;;6.40;3.80;;;3.00;99.90;;;;;;5103012;28;20199;-94
2022/12/13 08:27:04;;;;;;;4.60;3.80;;;3.00;99.90;;;;;;5103686;28;20214;-89
2022/12/13 08:29:36;;;;;;;7.43;4.43;;;2.90;99.90;;;;;;5082195;28;20285;-90
2022/12/13 08:32:11;;;;;;;5.30;3.93;;;2.90;99.90;;;;;;5091258;28;20214;-90
2022/12/13 08:34:44;;;;;;;4.83;3.83;;;2.80;99.90;;;;;;5089847;28;20587;-90
2022/12/13 08:37:15;;;;;;;4.77;4.07;;;2.80;99.90;;;;;;5073005;28;20576;-90
2022/12/13 08:39:48;;;;;;;5.67;3.70;;;2.80;99.90;;;;;;5088224;28;20587;-90
2022/12/13 08:42:19;;;;;;;4.10;3.70;;;2.70;99.90;;;;;;5079718;28;20196;-90
2022/12/13 08:44:52;;;;;;;4.73;3.70;;;2.70;99.90;;;;;;5079594;28;20215;-90
2022/12/13 08:47:28;;;;;;;6.17;4.10;;;2.70;99.90;;;;;;5079001;28;20290;-90
